Time;durP1;ratioP1;P1;durP2;ratioP2;P2;SDS_P1;SDS_P2;PMS_P1;PMS_P2;Temp;Humidity;BMP_temperature;BMP_pressure;BME280_temperature;BME280_humidity;BME280_pressure;Samples;Min_cycle;Max_cycle;Signal;HPM_P1;HPM_P2
2024/02/19 00:00:55;;;;;;;24.80;13.17;;;0.40;99.90;;;;;;4128727;28;20272;-60
2024/02/19 00:02:59;;;;;;;24.33;12.73;;;0.40;99.90;;;;;;4129293;28;20299;-59
2024/02/19 00:05:00;;;;;;;22.57;12.23;;;0.40;99.90;;;;;;4128017;28;20288;-61
2024/02/19 00:07:01;;;;;;;22.87;12.80;;;0.40;99.90;;;;;;4129580;28;20411;-57
2024/02/19 00:09:03;;;;;;;22.60;13.03;;;0.40;99.90;;;;;;4128326;28;20687;-55
2024/02/19 00:11:06;;;;;;;27.57;12.90;;;0.40;99.90;;;;;;4129096;28;20275;-60
2024/02/19 00:13:07;;;;;;;21.57;11.83;;;0.40;99.90;;;;;;4127897;28;20792;-59
2024/02/19 00:15:09;;;;;;;23.63;11.20;;;0.40;99.90;;;;;;4129479;28;20664;-60
2024/02/19 00:17:10;;;;;;;24.37;12.50;;;0.40;99.90;;;;;;4127718;28;20271;-61
2024/02/19 00:19:11;;;;;;;24.70;11.77;;;0.40;99.90;;;;;;4128942;28;20669;-59
2024/02/19 00:21:17;;;;;;;21.50;11.73;;;0.40;99.90;;;;;;4128329;28;20252;-61
2024/02/19 00:23:18;;;;;;;22.50;12.27;;;0.30;99.90;;;;;;4128426;28;20354;-61
2024/02/19 00:25:19;;;;;;;23.97;12.83;;;0.30;99.90;;;;;;4127328;28;20276;-57
2024/02/19 00:27:21;;;;;;;19.20;11.50;;;0.30;99.90;;;;;;4128580;28;20268;-61
2024/02/19 00:29:22;;;;;;;20.03;11.97;;;0.30;99.90;;;;;;4129080;28;20268;-61
2024/02/19 00:31:23;;;;;;;26.47;13.70;;;0.20;99.90;;;;;;4128596;28;20354;-57
2024/02/19 00:33:24;;;;;;;25.47;13.27;;;0.20;99.90;;;;;;4129458;28;20353;-61
2024/02/19 00:35:26;;;;;;;29.17;13.63;;;0.20;99.90;;;;;;4128040;28;20295;-61
2024/02/19 00:37:27;;;;;;;25.90;12.77;;;0.20;99.90;;;;;;4129496;28;20268;-59
2024/02/19 00:39:28;;;;;;;23.80;12.77;;;0.10;99.90;;;;;;4127888;28;20690;-57
2024/02/19 00:41:29;;;;;;;25.13;13.37;;;0.10;99.90;;;;;;4128854;28;20288;-61
2024/02/19 00:43:31;;;;;;;24.73;12.37;;;0.20;99.90;;;;;;4128305;28;20760;-59
2024/02/19 00:45:32;;;;;;;21.87;12.53;;;0.10;99.90;;;;;;4127872;28;20307;-61
2024/02/19 00:47:33;;;;;;;22.87;12.97;;;0.10;99.90;;;;;;4128177;28;20276;-59
2024/02/19 00:49:34;;;;;;;25.07;13.07;;;0.10;99.90;;;;;;4128737;28;20284;-56
2024/02/19 00:51:36;;;;;;;25.57;12.33;;;0.10;99.90;;;;;;4127659;28;20326;-59
2024/02/19 00:53:40;;;;;;;26.50;11.90;;;0.10;99.90;;;;;;4128060;28;20315;-52
2024/02/19 00:55:41;;;;;;;23.77;12.50;;;0.00;99.90;;;;;;4127942;28;20280;-53
2024/02/19 00:57:42;;;;;;;24.47;13.30;;;0.00;99.90;;;;;;4128899;28;20264;-62
2024/02/19 00:59:44;;;;;;;26.10;12.67;;;-0.10;99.90;;;;;;4128690;28;20264;-60
2024/02/19 01:01:45;;;;;;;25.00;12.77;;;-0.10;99.90;;;;;;4128288;28;20342;-61
2024/02/19 01:03:46;;;;;;;23.47;12.43;;;-0.10;99.90;;;;;;4128209;28;20284;-56
2024/02/19 01:05:47;;;;;;;23.23;12.53;;;-0.10;99.90;;;;;;4127890;28;20268;-57
2024/02/19 01:07:48;;;;;;;24.37;13.37;;;-0.20;99.90;;;;;;4128978;28;20284;-59
2024/02/19 01:09:50;;;;;;;26.50;12.40;;;-0.20;99.90;;;;;;4127721;28;20764;-59
2024/02/19 01:11:51;;;;;;;26.13;13.00;;;-0.30;99.90;;;;;;4128546;28;20354;-57
2024/02/19 01:13:52;;;;;;;25.47;13.07;;;-0.30;99.90;;;;;;4127904;28;20268;-60
2024/02/19 01:15:53;;;;;;;25.17;13.50;;;-0.30;99.90;;;;;;4129358;28;20279;-53
2024/02/19 01:17:54;;;;;;;28.07;14.33;;;-0.40;99.90;;;;;;4127565;28;20305;-60
2024/02/19 01:19:57;;;;;;;24.33;13.97;;;-0.40;99.90;;;;;;4128497;28;20284;-60
2024/02/19 01:21:58;;;;;;;28.47;13.93;;;-0.40;99.90;;;;;;4127463;28;20318;-57
2024/02/19 01:24:00;;;;;;;26.80;13.60;;;-0.40;99.90;;;;;;4127908;28;20280;-58
2024/02/19 01:26:01;;;;;;;27.90;14.40;;;-0.50;99.90;;;;;;4127405;28;20327;-60
2024/02/19 01:28:03;;;;;;;31.90;14.40;;;-0.50;99.90;;;;;;4127869;28;20272;-59
2024/02/19 01:30:05;;;;;;;28.93;14.33;;;-0.50;99.90;;;;;;4127975;28;20260;-61
2024/02/19 01:32:06;;;;;;;28.60;13.93;;;-0.50;99.90;;;;;;4128094;28;20346;-61
2024/02/19 01:34:08;;;;;;;27.00;13.87;;;-0.50;99.90;;;;;;4127587;28;20599;-62
2024/02/19 01:36:11;;;;;;;27.90;14.20;;;-0.60;99.90;;;;;;4126771;28;20741;-60
2024/02/19 01:38:13;;;;;;;30.37;13.70;;;-0.60;99.90;;;;;;4129590;28;20298;-56
2024/02/19 01:40:14;;;;;;;27.90;13.53;;;-0.60;99.90;;;;;;4130741;28;20345;-60
2024/02/19 01:42:15;;;;;;;28.77;13.67;;;-0.60;99.90;;;;;;4132132;28;20350;-58
2024/02/19 01:44:17;;;;;;;27.37;12.97;;;-0.70;99.90;;;;;;4130704;28;20318;-56
2024/02/19 01:46:19;;;;;;;25.67;13.23;;;-0.70;99.90;;;;;;4131017;28;20343;-55
2024/02/19 01:48:21;;;;;;;28.37;13.60;;;-0.70;99.90;;;;;;4130860;28;20268;-57
2024/02/19 01:50:24;;;;;;;28.57;13.70;;;-0.70;99.90;;;;;;4131570;28;20272;-60
2024/02/19 01:52:26;;;;;;;30.50;14.13;;;-0.70;99.90;;;;;;4130574;28;20799;-55
2024/02/19 01:54:28;;;;;;;25.40;13.60;;;-0.70;99.90;;;;;;4131545;28;20751;-60
2024/02/19 01:56:29;;;;;;;27.10;14.17;;;-0.70;99.90;;;;;;4129050;28;20264;-62
2024/02/19 01:58:32;;;;;;;27.50;12.90;;;-0.80;99.90;;;;;;4131276;28;20689;-61
2024/02/19 02:00:33;;;;;;;29.00;14.43;;;-0.80;99.90;;;;;;4130558;28;20256;-59
2024/02/19 02:02:35;;;;;;;29.10;14.57;;;-0.80;99.90;;;;;;4130408;28;20330;-60
2024/02/19 02:04:36;;;;;;;26.50;13.90;;;-0.90;99.90;;;;;;4130950;28;20251;-59
2024/02/19 02:06:38;;;;;;;24.40;13.47;;;-0.90;99.90;;;;;;4130462;28;20339;-61
2024/02/19 02:08:40;;;;;;;24.80;13.83;;;-0.90;99.90;;;;;;4131650;28;20272;-60
2024/02/19 02:10:41;;;;;;;22.60;12.67;;;-0.90;99.90;;;;;;4130241;28;20776;-60
2024/02/19 02:12:42;;;;;;;26.83;13.97;;;-0.90;99.90;;;;;;4130957;28;20308;-59
2024/02/19 02:14:43;;;;;;;26.17;12.60;;;-0.90;99.90;;;;;;4130524;28;20330;-60
2024/02/19 02:16:45;;;;;;;26.40;13.17;;;-0.90;99.90;;;;;;4130621;28;20264;-60
2024/02/19 02:18:46;;;;;;;25.87;12.87;;;-0.90;99.90;;;;;;4129830;28;20276;-53
2024/02/19 02:20:47;;;;;;;24.73;11.27;;;-0.90;99.90;;;;;;4131003;28;20268;-61
2024/02/19 02:22:49;;;;;;;24.53;12.33;;;-0.80;99.90;;;;;;4129703;28;20272;-61
2024/02/19 02:24:50;;;;;;;21.90;11.30;;;-0.90;99.90;;;;;;4130613;28;20691;-61
2024/02/19 02:26:51;;;;;;;24.80;12.20;;;-0.90;99.90;;;;;;4130090;28;21035;-61
2024/02/19 02:28:52;;;;;;;23.20;11.90;;;-0.90;99.90;;;;;;4131242;28;20268;-59
2024/02/19 02:30:54;;;;;;;21.37;12.20;;;-0.90;99.90;;;;;;4130675;28;20260;-60
2024/02/19 02:32:55;;;;;;;24.03;12.07;;;-0.90;99.90;;;;;;4130812;28;20284;-54
2024/02/19 02:34:56;;;;;;;23.17;11.47;;;-0.90;99.90;;;;;;4130644;28;20261;-59
2024/02/19 02:36:58;;;;;;;28.80;12.70;;;-0.90;99.90;;;;;;4129886;28;20790;-60
2024/02/19 02:39:00;;;;;;;25.73;12.13;;;-0.90;99.90;;;;;;4130972;28;20330;-60
2024/02/19 02:41:02;;;;;;;24.73;12.20;;;-1.00;99.90;;;;;;4129295;28;20364;-58
2024/02/19 02:43:03;;;;;;;25.87;11.80;;;-1.00;99.90;;;;;;4131018;28;20307;-59
2024/02/19 02:45:05;;;;;;;22.63;10.83;;;-1.00;99.90;;;;;;4129685;28;20759;-60
2024/02/19 02:47:06;;;;;;;20.93;11.03;;;-1.00;99.90;;;;;;4130839;28;20260;-60
2024/02/19 02:49:08;;;;;;;24.50;11.57;;;-1.00;99.90;;;;;;4129239;28;20268;-57
2024/02/19 02:51:09;;;;;;;22.83;11.97;;;-1.00;99.90;;;;;;4130996;28;20327;-60
2024/02/19 02:53:10;;;;;;;21.43;12.10;;;-1.10;99.90;;;;;;4128898;28;20372;-57
2024/02/19 02:55:11;;;;;;;25.67;12.73;;;-1.00;99.90;;;;;;4130903;28;20272;-61
2024/02/19 02:57:13;;;;;;;26.60;12.87;;;-1.00;99.90;;;;;;4129764;28;20264;-60
2024/02/19 02:59:14;;;;;;;32.90;13.70;;;-1.10;99.90;;;;;;4130715;28;20268;-60
2024/02/19 03:01:21;;;;;;;22.80;12.53;;;-1.10;99.90;;;;;;4129528;28;20260;-59
2024/02/19 03:03:22;;;;;;;31.30;12.50;;;-1.10;99.90;;;;;;4114700;28;20343;-61
2024/02/19 03:05:23;;;;;;;26.90;12.67;;;-1.20;99.90;;;;;;4114181;28;20260;-61
2024/02/19 03:07:25;;;;;;;24.00;12.87;;;-1.20;99.90;;;;;;4114528;28;20324;-63
2024/02/19 03:09:26;;;;;;;25.33;13.23;;;-1.20;99.90;;;;;;4118451;28;20771;-60
2024/02/19 03:11:28;;;;;;;24.73;12.57;;;-1.30;99.90;;;;;;4129330;28;20264;-60
2024/02/19 03:13:30;;;;;;;22.73;11.67;;;-1.30;99.90;;;;;;4130089;28;20370;-59
2024/02/19 03:15:31;;;;;;;24.23;12.80;;;-1.30;99.90;;;;;;4129069;28;20264;-61
2024/02/19 03:17:33;;;;;;;24.80;12.53;;;-1.30;99.90;;;;;;4130406;28;20294;-56
2024/02/19 03:19:34;;;;;;;24.40;12.93;;;-1.30;99.90;;;;;;4129040;28;20288;-60
2024/02/19 03:21:42;;;;;;;27.67;12.33;;;-1.30;99.90;;;;;;4129582;28;20842;-58
2024/02/19 03:23:51;;;;;;;27.93;12.93;;;-1.40;99.90;;;;;;4128194;28;20637;-62
2024/02/19 03:25:53;;;;;;;26.00;14.03;;;-1.30;99.90;;;;;;4129175;28;20566;-59
2024/02/19 03:27:54;;;;;;;26.53;12.47;;;-1.40;99.90;;;;;;4128279;28;20303;-61
2024/02/19 03:29:55;;;;;;;28.40;13.60;;;-1.40;99.90;;;;;;4129943;28;20276;-59
2024/02/19 03:31:57;;;;;;;27.27;13.23;;;-1.40;99.90;;;;;;4129427;28;20307;-57
2024/02/19 03:33:58;;;;;;;23.80;12.97;;;-1.40;99.90;;;;;;4129671;28;20308;-61
2024/02/19 03:35:59;;;;;;;29.00;12.93;;;-1.50;99.90;;;;;;4129141;28;20269;-59
2024/02/19 03:38:00;;;;;;;26.20;14.00;;;-1.50;99.90;;;;;;4129072;28;20260;-60
2024/02/19 03:40:06;;;;;;;26.13;13.43;;;-1.50;99.90;;;;;;4128994;28;20330;-61
2024/02/19 03:42:07;;;;;;;39.17;19.10;;;-1.50;99.90;;;;;;4129342;28;20276;-62
2024/02/19 03:44:08;;;;;;;42.33;21.27;;;-1.50;99.90;;;;;;4129009;28;20667;-60
2024/02/19 03:46:10;;;;;;;28.87;13.93;;;-1.50;99.90;;;;;;4127484;28;20268;-59
2024/02/19 03:48:11;;;;;;;26.67;13.50;;;-1.60;99.90;;;;;;4128984;28;20276;-55
2024/02/19 03:50:13;;;;;;;22.33;11.37;;;-1.60;99.90;;;;;;4128424;28;20298;-62
2024/02/19 03:52:14;;;;;;;24.63;12.20;;;-1.60;99.90;;;;;;4160699;28;20283;-59
2024/02/19 03:54:15;;;;;;;27.73;12.83;;;-1.60;99.90;;;;;;4128922;28;20314;-57
2024/02/19 03:56:17;;;;;;;25.10;12.67;;;-1.60;99.90;;;;;;4129618;28;20315;-59
2024/02/19 03:58:18;;;;;;;24.10;11.13;;;-1.60;99.90;;;;;;4127737;28;20283;-57
2024/02/19 04:00:20;;;;;;;24.37;11.93;;;-1.70;99.90;;;;;;4129037;28;20272;-59
2024/02/19 04:02:21;;;;;;;26.80;11.70;;;-1.70;99.90;;;;;;4128567;28;20256;-60
2024/02/19 04:04:22;;;;;;;21.53;11.17;;;-1.80;99.90;;;;;;4128829;28;20288;-59
2024/02/19 04:06:24;;;;;;;25.77;13.23;;;-1.80;99.90;;;;;;4127289;28;20299;-59
2024/02/19 04:08:25;;;;;;;23.60;12.00;;;-1.80;99.90;;;;;;4129112;28;20326;-60
2024/02/19 04:10:26;;;;;;;25.47;13.47;;;-1.90;99.90;;;;;;4128407;28;20280;-60
2024/02/19 04:12:27;;;;;;;28.87;14.30;;;-1.80;99.90;;;;;;4128723;28;20744;-60
2024/02/19 04:14:28;;;;;;;23.87;13.10;;;-1.80;99.90;;;;;;4128833;28;20288;-61
2024/02/19 04:16:30;;;;;;;27.10;13.70;;;-1.80;99.90;;;;;;4128569;28;20292;-59
2024/02/19 04:18:31;;;;;;;27.33;13.50;;;-1.80;99.90;;;;;;4129047;28;20283;-59
2024/02/19 04:20:32;;;;;;;24.20;12.50;;;-1.90;99.90;;;;;;4128120;28;20276;-60
2024/02/19 04:22:33;;;;;;;26.47;13.23;;;-1.90;99.90;;;;;;4128937;28;20318;-61
2024/02/19 04:24:34;;;;;;;25.57;11.97;;;-1.90;99.90;;;;;;4128013;28;20327;-58
2024/02/19 04:26:36;;;;;;;29.20;12.77;;;-1.90;99.90;;;;;;4129003;28;20334;-59
2024/02/19 04:28:37;;;;;;;25.87;12.93;;;-1.90;99.90;;;;;;4128621;28;20768;-62
2024/02/19 04:30:38;;;;;;;24.73;13.83;;;-1.90;99.90;;;;;;4129112;28;20272;-59
2024/02/19 04:32:39;;;;;;;27.67;12.27;;;-1.90;99.90;;;;;;4127999;28;20776;-59
2024/02/19 04:34:41;;;;;;;26.07;12.47;;;-1.90;99.90;;;;;;4128758;28;20342;-59
2024/02/19 04:36:42;;;;;;;24.73;12.67;;;-1.90;99.90;;;;;;4126238;28;20366;-60
2024/02/19 04:38:43;;;;;;;22.90;13.27;;;-2.00;99.90;;;;;;4128444;28;20291;-56
2024/02/19 04:40:44;;;;;;;24.57;13.17;;;-1.90;99.90;;;;;;4128245;28;20322;-55
2024/02/19 04:42:45;;;;;;;26.53;12.43;;;-2.00;99.90;;;;;;4128996;28;20688;-61
2024/02/19 04:44:47;;;;;;;25.43;12.40;;;-2.00;99.90;;;;;;4128348;28;20264;-58
2024/02/19 04:46:48;;;;;;;29.60;12.30;;;-2.00;99.90;;;;;;4127464;28;20337;-59
2024/02/19 04:48:49;;;;;;;24.93;14.17;;;-2.00;99.90;;;;;;4127386;28;20354;-60
2024/02/19 04:50:50;;;;;;;32.63;14.10;;;-2.00;99.90;;;;;;4126354;28;20268;-60
2024/02/19 04:52:51;;;;;;;27.30;13.40;;;-2.00;99.90;;;;;;4128782;28;20342;-59
2024/02/19 04:54:53;;;;;;;25.40;13.57;;;-2.00;99.90;;;;;;4127399;28;20356;-59
2024/02/19 04:56:54;;;;;;;28.17;13.60;;;-2.10;99.90;;;;;;4128833;28;20646;-62
2024/02/19 04:58:55;;;;;;;26.60;13.03;;;-2.10;99.90;;;;;;4127197;28;20362;-60
2024/02/19 05:00:57;;;;;;;25.13;12.73;;;-2.10;99.90;;;;;;4127983;28;20295;-61
2024/02/19 05:02:58;;;;;;;29.27;11.43;;;-2.00;99.90;;;;;;4125805;28;20335;-56
2024/02/19 05:04:59;;;;;;;28.27;13.70;;;-2.00;99.90;;;;;;4128899;28;20351;-54
2024/02/19 05:07:00;;;;;;;29.73;12.87;;;-2.00;99.90;;;;;;4128072;28;21045;-59
2024/02/19 05:09:02;;;;;;;25.17;13.33;;;-2.00;99.90;;;;;;4129139;28;20280;-60
2024/02/19 05:11:04;;;;;;;30.93;13.10;;;-2.10;99.90;;;;;;4127796;28;20327;-66
2024/02/19 05:13:07;;;;;;;28.73;13.63;;;-2.10;99.90;;;;;;4130496;28;20780;-62
2024/02/19 05:15:09;;;;;;;28.20;13.80;;;-2.00;99.90;;;;;;4131185;28;20330;-60
2024/02/19 05:17:10;;;;;;;33.70;13.90;;;-2.00;99.90;;;;;;4131719;28;20318;-61
2024/02/19 05:19:11;;;;;;;25.20;12.57;;;-2.00;99.90;;;;;;4132089;28;20276;-56
2024/02/19 05:21:14;;;;;;;27.93;14.07;;;-2.00;99.90;;;;;;4131838;28;20280;-60
2024/02/19 05:23:16;;;;;;;25.27;13.10;;;-2.00;99.90;;;;;;4131713;28;20346;-56
2024/02/19 05:25:18;;;;;;;28.37;13.73;;;-2.10;99.90;;;;;;4127991;28;20292;-56
2024/02/19 05:27:19;;;;;;;28.60;14.27;;;-2.10;99.90;;;;;;4130627;28;20272;-57
2024/02/19 05:29:22;;;;;;;31.40;14.23;;;-2.10;99.90;;;;;;4130048;28;20276;-57
2024/02/19 05:31:34;;;;;;;27.40;13.57;;;-2.10;99.90;;;;;;4132496;28;20292;-60
2024/02/19 05:33:35;;;;;;;26.30;12.70;;;-2.00;99.90;;;;;;4130637;28;20413;-61
2024/02/19 05:35:37;;;;;;;24.53;12.00;;;-2.00;99.90;;;;;;4131443;28;20346;-61
2024/02/19 05:37:38;;;;;;;26.70;12.70;;;-1.90;99.90;;;;;;4130766;28;20341;-58
2024/02/19 05:39:39;;;;;;;24.67;13.77;;;-1.70;99.90;;;;;;4131527;28;20276;-59
2024/02/19 05:41:41;;;;;;;27.23;13.30;;;-1.50;99.90;;;;;;4130145;28;20326;-61
2024/02/19 05:43:46;;;;;;;25.13;12.70;;;-1.30;99.90;;;;;;4130683;28;20748;-59
2024/02/19 05:45:48;;;;;;;33.60;15.07;;;-1.00;99.90;;;;;;4129689;28;22081;-60
2024/02/19 05:47:49;;;;;;;33.20;16.20;;;-0.80;99.90;;;;;;4130209;28;20276;-60
2024/02/19 05:49:50;;;;;;;26.00;15.23;;;-0.40;99.90;;;;;;4127760;28;20264;-60
2024/02/19 05:51:52;;;;;;;34.03;17.70;;;-0.10;99.90;;;;;;4130299;28;20314;-65
2024/02/19 05:53:54;;;;;;;37.40;21.00;;;0.10;99.90;;;;;;4130171;28;20292;-62
2024/02/19 05:55:56;;;;;;;37.53;20.57;;;0.40;99.90;;;;;;4129775;28;20280;-61
2024/02/19 05:57:57;;;;;;;37.17;15.97;;;0.60;99.90;;;;;;4130539;28;20748;-61
2024/02/19 05:59:58;;;;;;;27.67;14.13;;;0.70;99.90;;;;;;4130477;28;20322;-58
2024/02/19 06:02:00;;;;;;;21.50;11.97;;;1.00;99.90;;;;;;4131061;28;20816;-63
2024/02/19 06:04:01;;;;;;;22.43;13.17;;;1.30;99.90;;;;;;4130486;28;20314;-60
2024/02/19 06:06:03;;;;;;;22.67;12.07;;;1.40;99.90;;;;;;4131519;28;20303;-57
2024/02/19 06:08:05;;;;;;;21.33;11.67;;;1.70;99.90;;;;;;4130335;28;20657;-58
2024/02/19 06:10:07;;;;;;;22.80;12.70;;;1.90;99.90;;;;;;4131490;28;20374;-60
2024/02/19 06:12:09;;;;;;;17.43;10.53;;;2.20;99.90;;;;;;4129985;28;20338;-60
2024/02/19 06:14:11;;;;;;;16.93;10.27;;;2.60;99.90;;;;;;4130774;28;20354;-57
2024/02/19 06:16:12;;;;;;;20.93;10.80;;;2.90;99.90;;;;;;4130087;28;20276;-60
2024/02/19 06:18:14;;;;;;;17.73;10.10;;;3.10;99.90;;;;;;4131019;28;20276;-53
2024/02/19 06:20:15;;;;;;;16.10;10.17;;;3.50;99.90;;;;;;4129954;28;20272;-59
2024/02/19 06:22:16;;;;;;;15.97;10.23;;;3.70;99.90;;;;;;4131049;28;20331;-61
2024/02/19 06:24:18;;;;;;;20.90;11.53;;;4.20;99.90;;;;;;4129776;28;20344;-60
2024/02/19 06:26:19;;;;;;;18.30;11.03;;;4.50;99.90;;;;;;4129701;28;20342;-60
2024/02/19 06:28:20;;;;;;;17.70;10.73;;;4.80;99.90;;;;;;4130898;28;20050;-61
2024/02/19 06:30:21;;;;;;;15.50;10.07;;;5.00;99.90;;;;;;4129794;28;20486;-56
2024/02/19 06:32:23;;;;;;;23.90;11.30;;;5.00;99.90;;;;;;4131541;28;20457;-61
2024/02/19 06:34:25;;;;;;;16.60;10.97;;;5.30;99.90;;;;;;4129901;28;20046;-55
2024/02/19 06:36:27;;;;;;;20.40;10.83;;;5.60;99.90;;;;;;4131036;28;20034;-60
2024/02/19 06:38:28;;;;;;;19.83;11.73;;;5.90;99.90;;;;;;4129874;28;20026;-60
2024/02/19 06:40:29;;;;;;;26.83;14.17;;;6.00;99.90;;;;;;4130535;28;20097;-60
2024/02/19 06:42:30;;;;;;;23.37;14.87;;;5.80;99.90;;;;;;4129677;28;20084;-60
2024/02/19 06:44:31;;;;;;;71.77;33.57;;;5.90;99.90;;;;;;4130978;28;20494;-59
2024/02/19 06:46:32;;;;;;;96.97;42.03;;;5.50;99.90;;;;;;4129542;28;20664;-60
2024/02/19 06:48:34;;;;;;;82.57;40.00;;;5.30;99.90;;;;;;4130945;28;20026;-62
2024/02/19 06:50:35;;;;;;;69.17;32.63;;;5.40;99.90;;;;;;4129385;28;20050;-61
2024/02/19 06:52:39;;;;;;;68.13;31.97;;;5.60;99.90;;;;;;4130023;28;20042;-60
2024/02/19 06:54:40;;;;;;;62.60;28.13;;;6.10;99.90;;;;;;4129745;28;20054;-60
2024/02/19 06:56:42;;;;;;;52.87;22.37;;;6.30;99.90;;;;;;4130776;28;20046;-60
2024/02/19 06:58:43;;;;;;;48.10;23.67;;;6.30;99.90;;;;;;4130421;28;20015;-59
2024/02/19 07:00:44;;;;;;;46.73;24.03;;;6.00;99.90;;;;;;4129238;28;20035;-58
2024/02/19 07:02:45;;;;;;;48.90;26.63;;;5.50;99.90;;;;;;4130117;28;20506;-56
2024/02/19 07:04:47;;;;;;;47.27;24.93;;;4.80;99.90;;;;;;4129145;28;20482;-60
2024/02/19 07:06:48;;;;;;;55.53;26.97;;;4.30;99.90;;;;;;4130140;28;20462;-59
2024/02/19 07:08:49;;;;;;;53.87;25.33;;;3.70;99.90;;;;;;4129395;28;20038;-60
2024/02/19 07:10:52;;;;;;;49.57;26.83;;;3.60;99.90;;;;;;4129748;28;20073;-60
2024/02/19 07:12:53;;;;;;;51.40;25.73;;;3.40;99.90;;;;;;4128863;28;20054;-58
2024/02/19 07:14:57;;;;;;;52.63;26.17;;;3.00;99.90;;;;;;4130428;28;20050;-61
2024/02/19 07:16:59;;;;;;;60.77;27.67;;;2.80;99.90;;;;;;4129009;28;20101;-59
2024/02/19 07:19:00;;;;;;;59.70;27.73;;;2.80;99.90;;;;;;4130533;28;20038;-58
2024/02/19 07:21:02;;;;;;;52.97;22.90;;;2.60;99.90;;;;;;4128953;28;20073;-61
2024/02/19 07:23:03;;;;;;;38.83;22.30;;;2.50;99.90;;;;;;4130137;28;20288;-57
2024/02/19 07:25:05;;;;;;;51.17;24.93;;;2.60;99.90;;;;;;4129241;28;20296;-58
2024/02/19 07:27:06;;;;;;;51.10;26.50;;;2.60;99.90;;;;;;4130245;28;20323;-59
2024/02/19 07:29:07;;;;;;;48.73;25.70;;;2.70;99.90;;;;;;4129602;28;21058;-60
2024/02/19 07:31:08;;;;;;;51.30;24.37;;;2.70;99.90;;;;;;4129482;28;20319;-61
2024/02/19 07:33:09;;;;;;;47.03;24.27;;;3.10;99.90;;;;;;4130111;28;20300;-59
2024/02/19 07:35:11;;;;;;;59.77;25.13;;;3.60;99.90;;;;;;4127819;28;20295;-59
2024/02/19 07:37:12;;;;;;;50.10;22.13;;;4.00;99.90;;;;;;4130081;28;20684;-60
2024/02/19 07:39:13;;;;;;;55.33;23.20;;;4.30;99.90;;;;;;4128727;28;20327;-59
2024/02/19 07:41:16;;;;;;;45.50;23.80;;;4.60;99.90;;;;;;4130038;28;20314;-59
2024/02/19 07:43:17;;;;;;;44.43;23.00;;;5.00;99.90;;;;;;4128625;28;20276;-57
2024/02/19 07:45:18;;;;;;;45.47;23.80;;;5.10;99.90;;;;;;4129924;28;20264;-59
2024/02/19 07:47:19;;;;;;;46.77;23.40;;;5.10;99.90;;;;;;4128691;28;20684;-57
2024/02/19 07:49:21;;;;;;;44.00;24.37;;;5.00;99.90;;;;;;4128943;28;20268;-60
2024/02/19 07:51:22;;;;;;;49.20;22.63;;;5.00;99.90;;;;;;4128342;28;20614;-60
2024/02/19 07:53:23;;;;;;;43.33;21.70;;;5.20;99.90;;;;;;4129458;28;20265;-60
2024/02/19 07:55:25;;;;;;;43.20;21.17;;;5.30;99.90;;;;;;4128407;28;20311;-61
2024/02/19 07:57:26;;;;;;;35.80;19.27;;;5.50;99.90;;;;;;4130006;28;20272;-57
2024/02/19 07:59:27;;;;;;;40.00;21.10;;;5.50;99.90;;;;;;4129211;28;20041;-60
2024/02/19 08:01:29;;;;;;;39.50;20.47;;;5.50;99.90;;;;;;4129002;28;20272;-61
2024/02/19 08:03:34;;;;;;;43.70;22.57;;;5.60;99.90;;;;;;4129463;28;20330;-57
2024/02/19 08:05:35;;;;;;;42.17;22.53;;;5.70;99.90;;;;;;4128342;28;20330;-59
2024/02/19 08:07:36;;;;;;;36.77;20.10;;;5.90;99.90;;;;;;4129431;28;20038;-58
2024/02/19 08:09:37;;;;;;;52.77;21.37;;;6.20;99.90;;;;;;4128672;28;20030;-59
2024/02/19 08:11:39;;;;;;;44.43;22.03;;;6.60;99.90;;;;;;4129670;28;20338;-60
2024/02/19 08:13:43;;;;;;;47.37;21.30;;;6.50;99.90;;;;;;4128452;28;20042;-60
2024/02/19 08:15:44;;;;;;;43.23;22.10;;;6.60;99.90;;;;;;4129420;28;20026;-60
2024/02/19 08:17:46;;;;;;;63.13;27.87;;;6.80;99.90;;;;;;4128377;28;20097;-58
2024/02/19 08:19:47;;;;;;;59.60;26.47;;;6.60;99.90;;;;;;4128856;28;20558;-61
2024/02/19 08:21:49;;;;;;;57.43;26.30;;;6.60;99.90;;;;;;4127993;28;20093;-57
2024/02/19 08:23:50;;;;;;;55.30;26.80;;;6.20;99.90;;;;;;4129575;28;20470;-60
2024/02/19 08:25:51;;;;;;;48.53;26.03;;;6.20;99.90;;;;;;4128126;28;20502;-55
2024/02/19 08:27:52;;;;;;;58.47;24.07;;;6.10;99.90;;;;;;4129608;28;20031;-60
2024/02/19 08:29:54;;;;;;;47.90;23.37;;;6.00;99.90;;;;;;4128574;28;20474;-56
2024/02/19 08:31:55;;;;;;;41.53;21.83;;;5.70;99.90;;;;;;4128321;28;20605;-61
2024/02/19 08:33:57;;;;;;;38.43;19.70;;;5.70;99.90;;;;;;4128365;28;20042;-61
2024/02/19 08:36:00;;;;;;;43.33;19.87;;;5.70;99.90;;;;;;4128330;28;20038;-61
2024/02/19 08:38:01;;;;;;;36.93;17.87;;;5.40;99.90;;;;;;4129382;28;20073;-59
2024/02/19 08:40:04;;;;;;;42.73;18.20;;;5.40;99.90;;;;;;4128048;28;20038;-60
2024/02/19 08:42:05;;;;;;;27.00;12.60;;;5.40;99.90;;;;;;4129084;28;20039;-61
2024/02/19 08:44:07;;;;;;;25.00;14.63;;;5.40;99.90;;;;;;4127613;28;20092;-56
2024/02/19 08:46:08;;;;;;;34.00;15.07;;;5.40;99.90;;;;;;4128918;28;20038;-54
2024/02/19 08:48:09;;;;;;;26.30;12.00;;;5.40;99.90;;;;;;4128061;28;21126;-59
2024/02/19 08:50:12;;;;;;;27.57;13.40;;;5.40;99.90;;;;;;4128811;28;20093;-57
2024/02/19 08:52:14;;;;;;;21.67;11.77;;;5.50;99.90;;;;;;4127794;28;20097;-55
2024/02/19 08:54:15;;;;;;;23.20;11.67;;;5.80;99.90;;;;;;4129014;28;20092;-59
2024/02/19 08:56:16;;;;;;;19.40;9.80;;;5.60;99.90;;;;;;4127741;28;20043;-59
2024/02/19 08:58:17;;;;;;;19.73;10.63;;;5.40;99.90;;;;;;4129354;28;20048;-58
2024/02/19 09:00:18;;;;;;;20.63;11.13;;;5.30;99.90;;;;;;4127874;28;20042;-57
2024/02/19 09:02:21;;;;;;;20.77;10.37;;;5.60;99.90;;;;;;4128474;28;20038;-60
2024/02/19 09:04:22;;;;;;;23.97;10.80;;;5.50;99.90;;;;;;4128315;28;20022;-55
2024/02/19 09:06:23;;;;;;;22.53;10.73;;;5.40;99.90;;;;;;4128372;28;20030;-55
2024/02/19 09:08:25;;;;;;;20.07;10.00;;;5.40;99.90;;;;;;4127964;28;20042;-56
2024/02/19 09:10:26;;;;;;;16.00;8.13;;;5.30;99.90;;;;;;4127886;28;20050;-59
2024/02/19 09:12:27;;;;;;;20.73;8.33;;;5.20;99.90;;;;;;4128996;28;20046;-57
2024/02/19 09:14:28;;;;;;;12.97;8.10;;;5.30;99.90;;;;;;4127533;28;21170;-61
2024/02/19 09:16:33;;;;;;;18.67;10.33;;;5.30;99.90;;;;;;4129041;28;20112;-57
2024/02/19 09:18:35;;;;;;;13.97;8.93;;;5.30;99.90;;;;;;4127654;28;20093;-58
2024/02/19 09:20:36;;;;;;;15.77;8.60;;;5.30;99.90;;;;;;4128541;28;20267;-59
2024/02/19 09:22:40;;;;;;;11.50;7.73;;;5.40;99.90;;;;;;4127483;28;20160;-57
2024/02/19 09:24:44;;;;;;;13.70;7.03;;;5.60;99.90;;;;;;4128214;28;20542;-60
2024/02/19 09:26:45;;;;;;;10.57;6.27;;;5.60;99.90;;;;;;4127560;28;20496;-58
2024/02/19 09:28:47;;;;;;;17.20;6.40;;;5.60;99.90;;;;;;4129127;28;20042;-55
2024/02/19 09:30:48;;;;;;;14.10;6.70;;;5.70;99.90;;;;;;4127563;28;20380;-58
2024/02/19 09:32:49;;;;;;;9.37;5.60;;;5.90;99.90;;;;;;4128643;28;20038;-60
2024/02/19 09:34:50;;;;;;;10.23;5.60;;;5.90;99.90;;;;;;4127591;28;20397;-60
2024/02/19 09:36:51;;;;;;;8.57;5.50;;;6.10;99.90;;;;;;4128163;28;20035;-61
2024/02/19 09:38:56;;;;;;;13.20;7.00;;;6.20;99.90;;;;;;4128078;28;20027;-60
2024/02/19 09:41:04;;;;;;;11.90;6.30;;;6.20;99.90;;;;;;4127986;28;20038;-57
2024/02/19 09:43:05;;;;;;;13.40;6.77;;;6.30;99.90;;;;;;4128525;28;20042;-56
2024/02/19 09:45:09;;;;;;;11.47;6.77;;;6.40;99.90;;;;;;4127662;28;20569;-58
2024/02/19 09:47:15;;;;;;;15.30;8.20;;;6.40;99.90;;;;;;4128395;28;21057;-59
2024/02/19 09:49:21;;;;;;;14.50;8.20;;;6.60;99.90;;;;;;4127679;28;20093;-59
2024/02/19 09:51:25;;;;;;;16.93;8.33;;;6.60;99.90;;;;;;4128466;28;20043;-60
2024/02/19 09:53:32;;;;;;;12.43;7.33;;;6.80;99.90;;;;;;4127260;28;20046;-59
2024/02/19 09:55:33;;;;;;;18.20;9.60;;;7.00;99.90;;;;;;4128296;28;20058;-56
2024/02/19 09:57:35;;;;;;;15.67;8.53;;;7.10;99.90;;;;;;4127911;28;20442;-56
2024/02/19 09:59:40;;;;;;;12.47;7.93;;;7.00;99.90;;;;;;4130647;28;20053;-56
2024/02/19 10:01:41;;;;;;;15.57;8.27;;;6.80;99.90;;;;;;4130294;28;20058;-59
2024/02/19 10:03:43;;;;;;;13.87;9.10;;;6.80;99.90;;;;;;4131497;28;20093;-59
2024/02/19 10:05:44;;;;;;;17.57;10.20;;;6.80;99.90;;;;;;4130306;28;20446;-58
2024/02/19 10:07:46;;;;;;;12.97;8.83;;;7.00;99.90;;;;;;4131068;28;20042;-58
2024/02/19 10:09:47;;;;;;;17.40;10.03;;;7.00;99.90;;;;;;4130097;28;20026;-54
2024/02/19 10:11:49;;;;;;;20.67;9.90;;;7.00;99.90;;;;;;4130799;28;20042;-60
2024/02/19 10:13:52;;;;;;;14.03;9.27;;;7.00;99.90;;;;;;4130150;28;20525;-59
2024/02/19 10:15:53;;;;;;;18.30;9.47;;;7.00;99.90;;;;;;4130486;28;20040;-60
2024/02/19 10:17:54;;;;;;;15.40;9.57;;;6.90;99.90;;;;;;4130331;28;20030;-60
2024/02/19 10:20:06;;;;;;;14.53;9.67;;;6.80;99.90;;;;;;4130406;28;20096;-62
2024/02/19 10:22:08;;;;;;;18.37;9.90;;;6.80;99.90;;;;;;4130555;28;20022;-61